Station: Devonport Airport  

  Atmospheric Gas Attenuation - ITU Rec 676-11   ----------------- dB/100km -----------------
Date Time Temp RH % AH g/m3 Dew Point Wind Direction Speed kph Gust kph Barometer mB Rainfall Since 9am 24GHz 47GHz 76GHz 122GHz 134GHz 241GHz
08/05 12:30 15.9 54 7.31 6.6 20 28 1016.3 0 16.7 23.4 34.0 88.9 79.8 273.7
08/05 12:20 16 51 6.95 5.9 22 26 1016.1 0 16.0 22.8 32.6 85.2 75.3 257.9
08/05 12:10 15.8 53 7.13 6.3 22 26 1016.2 0 16.4 23.2 33.3 87.2 77.7 266.3
08/05 12:00 15.5 53 7.01 6 28 39 1016.1 0 16.1 23.1 33.0 86.3 76.5 262.1
08/05 11:50 15.9 49 6.64 5.2 28 35 1015.9 0 15.3 22.4 31.5 82.3 71.7 245.1
08/05 11:40 16.8 51 7.29 6.6 28 33 1015.8 0 16.7 23.1 33.5 87.7 78.6 269.6
08/05 11:30 16.5 56 7.86 7.7 24 35 1015.9 0 17.9 24.1 35.8 93.7 86.0 295.2
08/05 11:20 16.3 51 7.08 6.2 28 32 1015.7 0 16.2 23.0 32.9 86.1 76.6 262.4
08/05 11:10 16.1 52 7.13 6.3 24 26 1015.5 0 16.4 23.1 33.2 86.8 77.4 265.1
08/05 11:00 15.7 50 6.69 5.3 28 35 1015.5 0 15.4 22.5 31.7 82.9 72.4 247.8
08/05 10:50 15.8 52 7 6 26 28 1015.5 0 16.1 23.0 32.8 85.9 76.1 260.6
08/05 10:40 16.1 58 7.95 7.8 28 32 1015.4 0 18.1 24.3 36.3 95.0 87.5 300.5
08/05 10:30 15.9 50 6.77 5.5 20 32 1015.5 0 15.6 22.6 32.0 83.5 73.2 250.5
08/05 10:20 15.6 51 6.78 5.5 20 24 1015.2 0 15.6 22.7 32.1 83.9 73.6 251.8
08/05 10:10 15.4 53 6.96 5.9 22 28 1014.9 0 16.0 23.0 32.8 85.8 75.9 260.0
08/05 10:00 14.9 52 6.63 5.1 30 39 1014.8 0 15.3 22.6 31.8 83.1 72.4 247.5
08/05 09:50 14.5 55 6.84 5.6 35 39 1014.4 0 15.8 23.0 32.7 85.6 75.3 257.7
08/05 09:40 14.8 54 6.84 5.6 35 37 1014.3 0 15.8 22.9 32.6 85.2 75.0 256.7
08/05 09:30 14.7 55 6.92 5.8 28 37 1014.5 0 16.0 23.1 33.0 86.2 76.1 260.5
08/05 09:20 14.8 56 7.09 6.1 24 28 1014.4 0 16.3 23.3 33.5 87.7 78.1 267.5
08/05 09:10 14.7 56 7.05 6 24 28 1014.5 0 16.2 23.3 33.4 87.4 77.7 266.1
08/05 09:00 14.5 57 7.09 6.1 22 26 1014.4 0 16.3 23.4 33.7 88.1 78.4 268.5
08/05 08:50 14 57 6.88 5.6 24 28 1014 0 15.9 23.2 33.1 86.5 76.3 260.9
08/05 08:40 13.5 58 6.78 5.4 24 28 1013.8 0 15.7 23.1 32.9 86.0 75.5 258.2
08/05 08:30 13.3 59 6.82 5.5 22 28 1013.7 0 15.8 23.3 33.1 86.6 76.2 260.5
08/05 08:20 12.9 60 6.76 5.3 20 24 1013.3 0 15.7 23.2 33.0 86.4 75.8 259.1
08/05 08:10 12.4 61 6.67 5.1 24 26 1013.2 0 15.5 23.2 32.9 86.0 75.1 256.8
08/05 08:00 11 67 6.71 5.1 22 24 1012.9 0 15.7 23.6 33.6 87.9 77.0 263.0
08/05 07:50 10.5 68 6.6 4.9 22 22 1012.5 0 15.5 23.6 33.4 87.3 76.0 259.7
08/05 07:40 9.8 69 6.4 4.4 22 24 1012.3 0 15.1 23.5 32.9 86.0 74.1 252.9
08/05 07:30 10.2 65 6.19 3.9 15 19 1012.3 0 14.6 23.0 31.9 83.4 71.1 242.3
08/05 07:20 10.8 62 6.13 3.8 13 13 1012.1 0 14.4 22.8 31.4 82.1 69.8 237.8
08/05 07:10 10.9 61 6.07 3.7 7 9 1011.9 0 14.3 22.7 31.2 81.4 68.9 234.9
08/05 07:00 11.4 59 6.06 3.7 13 20 1011.6 0 14.3 22.5 30.9 80.8 68.4 232.9
08/05 06:50 10.9 62 6.17 3.9 15 17 1011.4 0 14.5 22.8 31.5 82.4 70.1 239.1
08/05 06:40 11.4 61 6.26 4.2 17 19 1011.1 0 14.7 22.8 31.7 82.7 70.8 241.5
08/05 06:30 11.1 63 6.35 4.3 22 35 1010.7 0 14.9 23.0 32.1 83.9 72.2 246.3
08/05 06:20 11.7 60 6.28 4.2 26 30 1010.5 0 14.7 22.7 31.6 82.6 70.7 241.3
08/05 06:10 11.8 61 6.42 4.5 28 33 1010.3 0 15.0 22.9 32.1 83.8 72.4 247.1
08/05 06:00 11.6 63 6.55 4.8 28 48 1010.2 0 15.3 23.1 32.6 85.4 74.2 253.4
08/05 05:50 11.9 61 6.46 4.6 32 37 1010.1 0 15.1 22.9 32.2 84.1 72.8 248.5
08/05 05:40 11.8 61 6.42 4.5 28 30 1010 0 15.0 22.9 32.1 83.8 72.4 247.0
08/05 05:30 11.9 60 6.36 4.4 32 41 1009.9 0 14.9 22.8 31.8 83.1 71.5 244.1
08/05 05:20 11.9 61 6.46 4.6 33 41 1009.8 0 15.1 22.9 32.2 84.1 72.8 248.4
08/05 05:10 11.9 62 6.57 4.9 32 37 1009.8 0 15.3 23.1 32.6 85.2 74.1 253.2
08/05 05:00 11.5 64 6.61 4.9 28 37 1009.8 0 15.4 23.3 32.9 86.0 75.0 256.3
08/05 04:50 11.2 66 6.69 5.1 24 28 1009.7 0 15.6 23.4 33.3 87.2 76.3 260.8
08/05 04:40 11.5 66 6.82 5.4 22 30 1009.8 0 15.9 23.6 33.7 88.2 77.7 265.6
08/05 04:30 11.6 65 6.76 5.3 20 26 1009.8 0 15.8 23.5 33.4 87.5 76.8 262.6
08/05 04:20 12.2 63 6.8 5.4 22 28 1009.9 0 15.8 23.4 33.3 87.2 76.7 262.4
08/05 04:10 12.1 61 6.54 4.8 17 19 1010 0 15.3 23.0 32.4 84.7 73.6 251.3
08/05 04:00 11.7 62 6.49 4.7 13 19 1009.8 0 15.2 23.0 32.4 84.6 73.3 250.4
08/05 03:50 12.7 59 6.57 4.9 13 17 1009.7 0 15.3 22.9 32.3 84.4 73.4 250.7
08/05 03:40 11.8 61 6.42 4.5 13 15 1009.5 0 15.0 22.9 32.0 83.8 72.3 246.9
08/05 03:30 12.6 59 6.53 4.8 19 30 1009.2 0 15.2 22.8 32.1 84.0 72.9 249.2
08/05 03:20 12.5 59 6.49 4.7 17 20 1009.1 0 15.1 22.8 32.0 83.7 72.5 247.7
08/05 03:10 12.3 62 6.73 5.2 17 22 1008.9 0 15.7 23.2 33.0 86.3 75.7 258.8
08/05 03:00 12.5 63 6.93 5.7 19 35 1008.9 0 16.1 23.5 33.7 88.1 78.0 266.9
08/05 02:50 12.8 63 7.06 5.9 19 24 1009 0 16.3 23.6 34.0 89.1 79.3 271.7
08/05 02:40 12.9 64 7.21 6.3 11 13 1008.7 0 16.7 23.8 34.6 90.5 81.1 277.9
08/05 02:30 13.1 64 7.3 6.5 26 39 1008.3 0 16.8 23.8 34.8 91.2 82.0 281.1
08/05 02:20 13.3 64 7.39 6.6 32 37 1008.2 0 17.0 23.9 35.1 91.9 82.9 284.3
08/05 02:10 13.2 64 7.35 6.5 33 39 1008 0 17.0 23.9 34.9 91.6 82.5 282.9
08/05 02:00 13.2 64 7.35 6.5 32 43 1007.9 0 17.0 23.9 34.9 91.5 82.5 282.9
08/05 01:50 13.3 63 7.28 6.4 33 39 1008 0 16.8 23.8 34.6 90.7 81.5 279.4
08/05 01:40 13.2 62 7.12 6.1 30 35 1008.1 0 16.5 23.5 34.1 89.2 79.6 272.7
08/05 01:30 13.7 60 7.11 6.1 39 52 1008.1 0 16.4 23.4 33.8 88.6 79.0 270.6
08/05 01:20 13.7 61 7.22 6.3 39 50 1008.1 0 16.7 23.6 34.2 89.7 80.4 275.4
08/05 01:10 13.5 62 7.25 6.4 39 46 1007.9 0 16.7 23.6 34.4 90.2 80.9 277.4
08/05 01:00 13.9 61 7.31 6.5 39 56 1008 0 16.8 23.6 34.5 90.3 81.3 278.6
08/05 00:50 13.7 62 7.34 6.6 33 46 1008 0 16.9 23.7 34.7 90.9 81.9 280.7
08/05 00:40 13.7 63 7.46 6.8 30 43 1007.9 0 17.2 23.9 35.1 92.1 83.4 285.9
08/05 00:30 13.6 67 7.89 7.6 30 52 1007.7 0 18.1 24.6 36.8 96.6 89.0 305.4
08/05 00:20 13 73 8.28 8.3 32 43 1007.8 0 18.9 25.4 38.7 101.5 94.7 325.6
08/05 00:10 12.6 74 8.19 8.1 19 20 1008.1 0 18.8 25.4 38.5 101.1 94.1 323.2
08/05 00:00 11.7 79 8.26 8.2 15 24 1008.3 0 19.0 25.8 39.2 103.0 96.1 330.3
07/05 23:50 12.1 76 8.15 8 11 13 1008.3 0 18.7 25.5 38.6 101.3 94.2 323.5
07/05 23:40 13 74 8.39 8.5 28 30 1008.3 0 19.2 25.6 39.1 102.7 96.2 330.8
07/05 23:30 13 76 8.62 8.9 28 33 1008.3 0 19.7 26.0 40.1 105.2 99.3 341.5
07/05 23:20 12.9 76 8.57 8.8 26 30 1008.4 0 19.6 25.9 39.9 104.8 98.7 339.7
07/05 23:10 12.8 76 8.51 8.7 22 28 1008.7 0 19.5 25.9 39.7 104.3 98.1 337.4
07/05 23:00 12.8 76 8.51 8.7 32 35 1008.8 0 19.5 25.9 39.7 104.3 98.1 337.4
07/05 22:50 12.2 77 8.31 8.3 28 33 1008.9 0 19.0 25.7 39.2 103.0 96.2 330.7
07/05 22:40 11.9 79 8.37 8.4 26 30 1009.3 0 19.2 25.9 39.6 104.1 97.4 334.9
07/05 22:30 11.3 86 8.77 9 22 26 1009.3 0 20.1 26.8 41.6 109.3 103.6 356.5
07/05 22:20 8.6 86 7.39 6.4 13 15 1009.7 0 17.2 25.3 37.3 97.7 88.2 302.2
07/05 22:10 9 86 7.58 6.8 15 17 1010 0 17.6 25.5 37.9 99.3 90.4 309.7
07/05 22:00 9.1 85 7.54 6.7 15 22 1010.3 0 17.5 25.4 37.7 98.7 89.7 307.5
07/05 21:50 10 85 7.99 7.6 20 22 1010.3 0 18.5 25.9 39.1 102.5 94.7 325.2
07/05 21:40 9.9 86 8.03 7.7 20 22 1010.3 0 18.6 26.0 39.3 103.1 95.4 327.5
07/05 21:30 9.8 87 8.07 7.7 17 24 1010.2 0 18.6 26.1 39.5 103.7 96.1 329.8
07/05 21:20 9.4 86 7.78 7.2 11 13 1010.4 0 18.0 25.7 38.5 101.0 92.6 317.7
07/05 21:10 9.8 85 7.89 7.4 19 22 1010.3 0 18.3 25.8 38.8 101.7 93.6 321.3
07/05 21:00 10.2 85 8.09 7.8 28 33 1010.4 0 18.7 26.0 39.4 103.4 95.9 329.1
07/05 20:50 10.1 85 8.04 7.7 28 32 1010.5 0 18.6 26.0 39.2 103.0 95.3 327.2
07/05 20:40 9.9 83 7.75 7.2 30 33 1010.8 0 18.0 25.5 38.2 100.1 91.7 314.4
07/05 20:30 10.4 84 8.1 7.8 32 37 1011.1 0 18.7 26.0 39.4 103.3 95.8 329.0
07/05 20:20 10.5 83 8.05 7.7 33 35 1011 0 18.6 25.9 39.1 102.6 95.0 326.2
07/05 20:10 10.5 82 7.95 7.6 33 37 1011.2 0 18.4 25.7 38.7 101.5 93.7 321.5
07/05 20:00 10.5 81 7.86 7.4 35 44 1011.5 0 18.2 25.6 38.4 100.6 92.5 317.3

Last Refresh: 08-May-2026 12:07:20

Bureau of Meteorology